createdAt,value
2022-10-14T00:01:25.937Z,37.85
2022-10-14T00:04:10.706Z,36.75
2022-10-14T00:06:38.688Z,40.22
2022-10-14T00:09:09.064Z,44.90
2022-10-14T00:11:38.150Z,43.65
2022-10-14T00:14:10.765Z,38.67
2022-10-14T00:16:40.517Z,36.70
2022-10-14T00:19:12.256Z,38.42
2022-10-14T00:21:43.560Z,39.65
2022-10-14T00:24:14.206Z,38.97
2022-10-14T00:26:42.467Z,36.53
2022-10-14T00:29:15.473Z,35.55
2022-10-14T00:31:43.368Z,38.58
2022-10-14T00:34:16.112Z,35.72
2022-10-14T00:36:44.991Z,36.47
2022-10-14T00:39:16.687Z,36.17
2022-10-14T00:41:45.457Z,34.00
2022-10-14T00:44:16.015Z,36.85
2022-10-14T00:46:51.325Z,35.25
2022-10-14T00:49:39.647Z,33.53
2022-10-14T00:52:15.140Z,30.60
2022-10-14T00:55:10.258Z,37.47
2022-10-14T00:57:38.913Z,37.97
2022-10-14T01:00:13.373Z,35.38
2022-10-14T01:05:12.300Z,41.03
2022-10-14T01:07:45.538Z,37.47
2022-10-14T01:10:21.682Z,39.63
2022-10-14T01:13:11.126Z,30.40
2022-10-14T01:15:51.833Z,34.40
2022-10-14T01:18:28.615Z,34.35
2022-10-14T01:20:56.542Z,29.35
2022-10-14T01:24:01.267Z,36.17
2022-10-14T01:26:58.230Z,42.83
2022-10-14T01:29:41.722Z,41.10
2022-10-14T01:32:21.745Z,36.47
2022-10-14T01:35:21.591Z,34.60
2022-10-14T01:38:13.588Z,40.88
2022-10-14T01:40:57.110Z,37.88
2022-10-14T01:43:28.432Z,44.92
2022-10-14T01:45:58.584Z,39.38
2022-10-14T01:48:32.893Z,40.70
2022-10-14T01:51:07.190Z,44.17
2022-10-14T01:53:42.106Z,42.65
2022-10-14T01:56:12.485Z,43.72
2022-10-14T01:58:41.626Z,39.17
2022-10-14T02:01:10.032Z,37.80
2022-10-14T02:03:43.967Z,35.00
2022-10-14T02:09:08.867Z,35.00
2022-10-14T02:12:14.624Z,39.70
2022-10-14T02:14:59.864Z,37.83
2022-10-14T02:17:47.545Z,38.80
2022-10-14T02:20:32.130Z,37.38
2022-10-14T02:23:06.587Z,39.63
2022-10-14T02:25:40.142Z,37.67
2022-10-14T02:28:12.093Z,40.35
2022-10-14T02:30:45.326Z,43.97
2022-10-14T02:33:16.040Z,46.50
2022-10-14T02:35:44.134Z,44.42
2022-10-14T02:38:11.909Z,43.65
2022-10-14T02:40:50.394Z,36.85
2022-10-14T02:43:18.601Z,40.60
2022-10-14T02:45:46.798Z,42.13
2022-10-14T02:48:14.949Z,44.53
2022-10-14T02:50:43.126Z,50.67
2022-10-14T02:53:14.670Z,44.33
2022-10-14T02:55:46.521Z,44.38
2022-10-14T02:58:14.549Z,39.55
2022-10-14T03:00:42.311Z,44.58
2022-10-14T03:03:11.195Z,37.33
2022-10-14T03:05:39.811Z,41.05
2022-10-14T03:08:12.944Z,43.37
2022-10-14T03:10:41.710Z,43.67
2022-10-14T03:13:11.692Z,44.83
2022-10-14T03:15:44.035Z,44.80
2022-10-14T03:18:12.750Z,37.40
2022-10-14T03:20:45.944Z,38.50
2022-10-14T03:23:18.578Z,41.70
2022-10-14T03:25:49.947Z,45.17
2022-10-14T03:28:24.672Z,46.20
2022-10-14T03:30:59.722Z,47.75
2022-10-14T03:33:47.263Z,50.70
2022-10-14T03:36:19.045Z,50.47
2022-10-14T03:38:51.816Z,50.75
2022-10-14T03:41:33.410Z,53.75
2022-10-14T03:44:01.730Z,52.72
2022-10-14T03:46:31.114Z,52.55
2022-10-14T03:48:59.455Z,49.60
2022-10-14T03:51:28.038Z,48.45
2022-10-14T03:54:07.007Z,54.67
2022-10-14T03:56:34.786Z,50.72
2022-10-14T03:59:06.365Z,47.42
2022-10-14T04:01:34.229Z,51.08
2022-10-14T04:04:22.989Z,49.67
2022-10-14T04:06:50.901Z,51.00
2022-10-14T04:09:21.225Z,49.38
2022-10-14T04:11:49.753Z,52.65
2022-10-14T04:14:46.547Z,45.55
2022-10-14T04:17:15.117Z,48.40
2022-10-14T04:19:44.359Z,49.35
2022-10-14T04:22:14.960Z,50.33
2022-10-14T04:24:46.830Z,43.75
2022-10-14T04:27:14.746Z,49.83
2022-10-14T04:29:50.229Z,43.97
2022-10-14T04:32:26.115Z,41.55
2022-10-14T04:34:55.067Z,43.72
2022-10-14T04:37:25.822Z,42.70
2022-10-14T04:40:08.396Z,44.05
2022-10-14T04:42:42.971Z,38.63
2022-10-14T04:45:20.377Z,38.15
2022-10-14T04:47:54.670Z,41.33
2022-10-14T04:50:24.897Z,39.65
2022-10-14T04:53:13.711Z,44.25
2022-10-14T04:55:54.659Z,40.97
2022-10-14T04:58:22.413Z,42.97
2022-10-14T05:00:50.782Z,43.03
2022-10-14T05:03:44.595Z,39.60
2022-10-14T05:06:13.317Z,44.20
2022-10-14T05:08:44.866Z,45.67
2022-10-14T05:11:14.505Z,43.40
2022-10-14T05:16:17.609Z,42.85
2022-10-14T05:18:45.502Z,47.05
2022-10-14T05:21:15.238Z,44.47
2022-10-14T05:23:53.588Z,45.38
2022-10-14T05:26:21.510Z,46.40
2022-10-14T05:28:52.709Z,46.08
2022-10-14T05:31:21.862Z,52.78
2022-10-14T05:33:58.492Z,48.35
2022-10-14T05:36:26.209Z,54.78
2022-10-14T05:38:58.643Z,51.53
2022-10-14T05:41:30.452Z,49.35
2022-10-14T05:43:59.759Z,53.03
2022-10-14T05:46:31.041Z,53.63
2022-10-14T05:49:00.459Z,44.72
2022-10-14T05:51:28.913Z,42.42
2022-10-14T05:54:06.388Z,46.45
2022-10-14T05:56:34.224Z,45.38
2022-10-14T05:59:03.611Z,45.60
2022-10-14T06:01:34.672Z,49.13
2022-10-14T06:04:03.237Z,45.33
2022-10-14T06:06:30.949Z,51.53
2022-10-14T06:08:59.006Z,47.70
2022-10-14T06:11:26.857Z,50.20
2022-10-14T06:13:54.606Z,45.67
2022-10-14T06:16:22.650Z,47.50
2022-10-14T06:18:54.306Z,44.50
2022-10-14T06:21:23.544Z,46.35
2022-10-14T06:23:51.444Z,48.83
2022-10-14T06:26:19.420Z,44.90
2022-10-14T06:28:47.413Z,45.65
2022-10-14T06:31:15.396Z,43.53
2022-10-14T06:33:44.139Z,49.25
2022-10-14T06:36:12.257Z,41.88
2022-10-14T06:38:40.004Z,46.33
2022-10-14T06:41:07.950Z,43.58
2022-10-14T06:43:35.876Z,45.95
2022-10-14T06:46:04.309Z,50.92
2022-10-14T06:48:32.408Z,43.80
2022-10-14T06:51:01.545Z,44.72
2022-10-14T06:53:30.111Z,47.67
2022-10-14T06:56:02.535Z,42.80
2022-10-14T06:58:31.808Z,47.05
2022-10-14T07:01:07.740Z,45.95
2022-10-14T07:03:38.803Z,42.40
2022-10-14T07:06:08.228Z,40.20
2022-10-14T07:08:39.122Z,42.47
2022-10-14T07:11:07.813Z,43.70
2022-10-14T07:13:35.859Z,41.60
2022-10-14T07:16:04.344Z,37.50
2022-10-14T07:18:32.712Z,40.38
2022-10-14T07:21:05.070Z,41.22
2022-10-14T07:23:33.673Z,40.08
2022-10-14T07:26:01.878Z,39.05
2022-10-14T07:28:29.914Z,42.53
2022-10-14T07:31:03.547Z,38.47
2022-10-14T07:33:32.169Z,40.55
2022-10-14T07:36:05.549Z,37.35
2022-10-14T07:38:33.659Z,38.90
2022-10-14T07:41:04.986Z,42.58
2022-10-14T07:43:33.934Z,42.13
2022-10-14T07:46:05.226Z,37.08
2022-10-14T07:48:52.323Z,34.60
2022-10-14T07:51:22.056Z,40.47
2022-10-14T07:53:50.290Z,38.28
2022-10-14T07:56:18.237Z,36.55
2022-10-14T07:58:46.621Z,38.92
2022-10-14T08:01:16.118Z,37.42
2022-10-14T08:03:44.939Z,39.05
2022-10-14T08:06:13.585Z,39.85
2022-10-14T08:08:41.577Z,36.92
2022-10-14T08:11:22.908Z,35.53
2022-10-14T08:13:51.298Z,40.28
2022-10-14T08:16:21.366Z,36.42
2022-10-14T08:18:49.870Z,34.42
2022-10-14T08:21:19.238Z,39.67
2022-10-14T08:23:47.399Z,37.92
2022-10-14T08:26:39.240Z,32.35
2022-10-14T08:29:11.116Z,35.17
2022-10-14T08:31:39.142Z,43.17
2022-10-14T08:34:07.117Z,40.80
2022-10-14T08:36:34.814Z,31.65
2022-10-14T08:39:02.917Z,33.90
2022-10-14T08:41:39.661Z,36.67
2022-10-14T08:44:19.610Z,32.35
2022-10-14T08:46:52.666Z,29.38
2022-10-14T08:49:45.841Z,28.08
2022-10-14T08:52:19.062Z,28.92
2022-10-14T08:54:57.719Z,28.23
2022-10-14T08:57:41.958Z,24.38
2022-10-14T09:00:12.496Z,28.25
2022-10-14T09:02:40.200Z,25.30
2022-10-14T09:05:13.696Z,23.25
2022-10-14T09:07:42.365Z,25.40
2022-10-14T09:10:23.549Z,22.83
2022-10-14T09:12:53.709Z,22.02
2022-10-14T09:15:37.138Z,20.38
2022-10-14T09:18:07.227Z,21.25
2022-10-14T09:20:35.390Z,22.17
2022-10-14T09:23:15.928Z,23.15
2022-10-14T09:26:11.624Z,20.23
2022-10-14T09:28:43.554Z,19.02
2022-10-14T09:31:13.919Z,18.38
2022-10-14T09:33:44.400Z,19.90
2022-10-14T09:36:20.927Z,20.73
2022-10-14T09:38:54.311Z,17.92
2022-10-14T09:41:30.687Z,18.67
2022-10-14T09:44:25.811Z,15.77
2022-10-14T09:46:59.817Z,19.23
2022-10-14T09:49:47.008Z,18.40
2022-10-14T09:52:23.857Z,15.60
2022-10-14T09:54:57.509Z,16.60
2022-10-14T09:57:26.001Z,14.80
2022-10-14T10:00:03.945Z,17.77
2022-10-14T10:02:42.323Z,18.58
2022-10-14T10:05:33.245Z,18.63
2022-10-14T10:08:19.327Z,18.42
2022-10-14T10:11:06.948Z,15.77
2022-10-14T10:13:43.933Z,16.02
2022-10-14T10:16:34.732Z,19.15
2022-10-14T10:19:23.735Z,17.45
2022-10-14T10:21:51.699Z,16.52
2022-10-14T10:24:26.014Z,18.00
2022-10-14T10:26:56.634Z,17.48
2022-10-14T10:29:34.511Z,15.70
2022-10-14T10:32:30.265Z,15.98
2022-10-14T10:35:14.068Z,20.25
2022-10-14T10:37:52.568Z,17.55
2022-10-14T10:40:32.592Z,18.70
2022-10-14T10:43:28.866Z,19.48
2022-10-14T10:45:59.620Z,17.77
2022-10-14T10:48:27.562Z,19.73
2022-10-14T10:51:08.183Z,23.75
2022-10-14T10:53:55.574Z,24.77
2022-10-14T10:56:26.043Z,17.70
2022-10-14T10:59:15.609Z,20.55
2022-10-14T11:01:55.354Z,17.52
2022-10-14T11:04:26.197Z,15.95
2022-10-14T11:07:28.233Z,15.32
2022-10-14T11:10:33.043Z,15.43
2022-10-14T11:13:12.655Z,16.13
2022-10-14T11:15:49.674Z,16.77
2022-10-14T11:18:30.898Z,16.95
2022-10-14T11:21:13.824Z,15.30
2022-10-14T11:23:50.332Z,18.77
2022-10-14T11:26:28.017Z,21.73
2022-10-14T11:29:25.016Z,21.23
2022-10-14T11:32:21.385Z,17.67
2022-10-14T11:35:23.254Z,19.38
2022-10-14T11:38:38.514Z,16.83
2022-10-14T11:41:26.473Z,24.02
2022-10-14T11:43:58.558Z,17.33
2022-10-14T11:46:35.328Z,16.83
2022-10-14T11:49:14.056Z,12.57
2022-10-14T11:51:55.876Z,21.58
2022-10-14T11:54:52.972Z,21.00
2022-10-14T11:57:35.187Z,19.42
2022-10-14T12:00:22.419Z,18.45
2022-10-14T12:03:48.522Z,21.55
2022-10-14T12:06:26.164Z,24.15
2022-10-14T12:09:32.217Z,19.83
2022-10-14T12:12:04.727Z,22.23
2022-10-14T12:14:32.371Z,18.27
2022-10-14T12:17:04.546Z,17.98
2022-10-14T12:19:33.385Z,21.15
2022-10-14T12:22:31.850Z,22.38
2022-10-14T12:25:12.610Z,22.85
2022-10-14T12:27:41.080Z,23.85
2022-10-14T12:30:42.020Z,24.75
2022-10-14T12:33:13.173Z,19.98
2022-10-14T12:38:29.226Z,22.60
2022-10-14T12:41:34.493Z,17.27
2022-10-14T12:44:14.109Z,21.10
2022-10-14T12:46:47.658Z,22.35
2022-10-14T12:49:31.255Z,20.83
2022-10-14T12:52:05.782Z,21.90
2022-10-14T12:54:37.340Z,23.83
2022-10-14T12:57:30.178Z,18.65
2022-10-14T13:00:01.778Z,23.70
2022-10-14T13:02:44.697Z,17.40
2022-10-14T13:05:34.343Z,23.70
2022-10-14T13:08:20.441Z,19.83
2022-10-14T13:10:50.482Z,24.25
2022-10-14T13:13:37.218Z,18.38
2022-10-14T13:16:28.317Z,22.20
2022-10-14T13:18:58.408Z,22.80
2022-10-14T13:21:35.029Z,20.35
2022-10-14T13:24:07.821Z,21.23
2022-10-14T13:26:53.592Z,22.40
2022-10-14T13:29:40.160Z,19.23
2022-10-14T13:32:49.061Z,26.23
2022-10-14T13:35:30.978Z,25.00
2022-10-14T13:38:01.356Z,21.13
2022-10-14T13:40:45.370Z,19.40
2022-10-14T13:43:40.572Z,24.90
2022-10-14T13:46:30.010Z,23.30
2022-10-14T13:49:02.404Z,24.42
2022-10-14T13:51:36.937Z,22.65
2022-10-14T13:54:26.706Z,26.90
2022-10-14T14:00:40.329Z,21.63
2022-10-14T14:03:36.872Z,21.35
2022-10-14T14:06:13.091Z,25.35
2022-10-14T14:08:55.399Z,20.55
2022-10-14T14:11:25.014Z,24.40
2022-10-14T14:13:58.943Z,26.63
2022-10-14T14:16:37.963Z,26.17
2022-10-14T14:19:10.437Z,22.95
2022-10-14T14:21:38.930Z,24.50
2022-10-14T14:24:23.458Z,25.98
2022-10-14T14:26:56.123Z,28.02
2022-10-14T14:29:31.129Z,29.08
2022-10-14T14:32:08.785Z,31.75
2022-10-14T14:34:39.948Z,32.80
2022-10-14T14:40:19.028Z,31.67
2022-10-14T14:42:49.264Z,34.00
2022-10-14T14:45:25.537Z,34.50
2022-10-14T14:47:57.133Z,33.10
2022-10-14T14:50:33.709Z,34.40
2022-10-14T14:53:07.097Z,35.45
2022-10-14T14:55:39.834Z,33.72
2022-10-14T14:58:36.195Z,41.67
2022-10-14T15:01:07.689Z,39.35
2022-10-14T15:04:15.383Z,35.40
2022-10-14T15:07:17.476Z,40.47
2022-10-14T15:09:52.160Z,39.78
2022-10-14T15:12:30.725Z,36.47
2022-10-14T15:15:02.340Z,46.58
2022-10-14T15:17:34.392Z,44.17
2022-10-14T15:20:05.327Z,43.35
2022-10-14T15:22:44.760Z,43.33
2022-10-14T15:25:21.390Z,39.78
2022-10-14T15:27:52.046Z,41.80
2022-10-14T15:30:40.518Z,44.08
2022-10-14T15:33:15.745Z,43.65
2022-10-14T15:35:45.690Z,42.92
2022-10-14T15:38:17.027Z,46.60
2022-10-14T15:40:46.764Z,41.20
2022-10-14T15:43:18.050Z,45.97
2022-10-14T15:46:12.054Z,42.08
2022-10-14T15:48:58.617Z,47.83
2022-10-14T15:51:30.614Z,42.42
2022-10-14T15:53:59.113Z,40.45
2022-10-14T15:56:27.016Z,45.13
2022-10-14T15:58:54.925Z,42.88
2022-10-14T16:01:24.240Z,41.50
2022-10-14T16:03:52.537Z,45.00
2022-10-14T16:06:22.774Z,39.22
2022-10-14T16:08:51.101Z,48.53
2022-10-14T16:11:31.013Z,41.53
2022-10-14T16:13:59.124Z,39.72
2022-10-14T16:16:40.642Z,40.83
2022-10-14T16:19:08.558Z,42.20
2022-10-14T16:21:36.850Z,46.47
2022-10-14T16:24:05.521Z,40.55
2022-10-14T16:26:33.589Z,43.13
2022-10-14T16:29:03.353Z,43.72
2022-10-14T16:31:31.365Z,46.88
2022-10-14T16:33:59.113Z,45.22
2022-10-14T16:36:26.915Z,44.58
2022-10-14T16:38:57.502Z,46.00
2022-10-14T16:41:27.791Z,44.60
2022-10-14T16:43:55.521Z,49.65
2022-10-14T16:46:46.199Z,49.58
2022-10-14T16:49:15.058Z,49.67
2022-10-14T16:51:44.084Z,47.35
2022-10-14T16:54:12.451Z,48.05
2022-10-14T16:56:53.478Z,49.35
2022-10-14T16:59:22.586Z,47.72
2022-10-14T17:01:51.196Z,54.47
2022-10-14T17:04:23.272Z,48.60
2022-10-14T17:06:58.654Z,47.30
2022-10-14T17:09:26.615Z,54.33
2022-10-14T17:11:55.051Z,52.63
2022-10-14T17:14:24.328Z,52.45
2022-10-14T17:16:52.476Z,48.22
2022-10-14T17:19:20.887Z,50.67
2022-10-14T17:21:49.186Z,50.08
2022-10-14T17:24:17.465Z,52.80
2022-10-14T17:26:45.620Z,51.33
2022-10-14T17:29:13.425Z,51.10
2022-10-14T17:31:41.810Z,53.58
2022-10-14T17:34:10.821Z,49.25
2022-10-14T17:36:40.179Z,52.85
2022-10-14T17:39:16.382Z,51.47
2022-10-14T17:41:49.071Z,54.78
2022-10-14T17:44:16.965Z,51.80
2022-10-14T17:46:45.143Z,57.80
2022-10-14T17:49:13.177Z,56.85
2022-10-14T17:51:41.111Z,55.45
2022-10-14T17:54:12.095Z,55.17
2022-10-14T17:56:40.998Z,59.00
2022-10-14T17:59:12.042Z,52.60
2022-10-14T18:04:27.921Z,56.35
2022-10-14T18:06:55.773Z,59.40
2022-10-14T18:09:23.687Z,58.33
2022-10-14T18:12:09.098Z,52.90
2022-10-14T18:14:40.707Z,54.60
2022-10-14T18:17:12.909Z,54.70
2022-10-14T18:19:42.048Z,58.85
2022-10-14T18:22:11.188Z,56.20
2022-10-14T18:24:39.631Z,61.03
2022-10-14T18:27:07.453Z,64.45
2022-10-14T18:29:36.841Z,84.95
2022-10-14T18:32:05.481Z,73.95
2022-10-14T18:34:35.671Z,73.50
2022-10-14T18:37:03.748Z,62.72
2022-10-14T18:39:31.716Z,56.03
2022-10-14T18:41:59.412Z,59.28
2022-10-14T18:44:27.497Z,57.85
2022-10-14T18:46:55.300Z,59.13
2022-10-14T18:49:23.337Z,63.78
2022-10-14T18:51:53.195Z,59.47
2022-10-14T18:54:25.072Z,58.80
2022-10-14T18:56:54.105Z,60.25
2022-10-14T18:59:23.466Z,63.58
2022-10-14T19:01:53.236Z,59.30
2022-10-14T19:04:24.342Z,59.22
2022-10-14T19:06:53.194Z,59.63
2022-10-14T19:09:24.761Z,57.33
2022-10-14T19:11:54.238Z,58.13
2022-10-14T19:14:22.525Z,58.78
2022-10-14T19:16:51.044Z,60.47
2022-10-14T19:19:20.362Z,60.13
2022-10-14T19:21:54.443Z,65.47
2022-10-14T19:24:22.539Z,60.92
2022-10-14T19:26:50.471Z,70.15
2022-10-14T19:29:18.257Z,70.45
2022-10-14T19:31:46.191Z,60.20
2022-10-14T19:34:16.305Z,62.72
2022-10-14T19:36:45.773Z,63.97
2022-10-14T19:39:16.424Z,62.20
2022-10-14T19:41:46.537Z,59.97
2022-10-14T19:44:16.141Z,62.17
2022-10-14T19:46:45.049Z,64.97
2022-10-14T19:49:15.035Z,65.53
2022-10-14T19:51:44.148Z,78.20
2022-10-14T19:54:13.087Z,73.57
2022-10-14T19:56:41.330Z,62.85
2022-10-14T19:59:10.014Z,64.03
2022-10-14T20:01:37.889Z,59.95
2022-10-14T20:04:06.106Z,60.85
2022-10-14T20:06:35.876Z,63.40
2022-10-14T20:09:04.357Z,62.30
2022-10-14T20:11:34.678Z,61.13
2022-10-14T20:14:02.644Z,64.80
2022-10-14T20:16:30.697Z,65.95
2022-10-14T20:18:58.561Z,64.30
2022-10-14T20:21:26.936Z,65.97
2022-10-14T20:23:54.966Z,59.13
2022-10-14T20:26:23.047Z,63.53
2022-10-14T20:28:51.699Z,64.80
2022-10-14T20:31:22.517Z,71.95
2022-10-14T20:33:50.289Z,67.20
2022-10-14T20:36:20.178Z,79.13
2022-10-14T20:38:49.413Z,71.95
2022-10-14T20:41:23.069Z,77.22
2022-10-14T20:43:51.568Z,73.70
2022-10-14T20:46:19.837Z,73.13
2022-10-14T20:48:47.793Z,68.63
2022-10-14T20:51:20.206Z,73.35
2022-10-14T20:53:48.062Z,66.50
2022-10-14T20:56:16.149Z,75.75
2022-10-14T20:58:44.065Z,73.57
2022-10-14T21:01:16.848Z,75.13
2022-10-14T21:03:46.167Z,77.78
2022-10-14T21:06:20.542Z,79.65
2022-10-14T21:08:49.783Z,79.38
2022-10-14T21:11:20.871Z,76.60
2022-10-14T21:13:52.369Z,71.18
2022-10-14T21:16:24.890Z,68.63
2022-10-14T21:18:58.808Z,70.85
2022-10-14T21:21:34.007Z,76.78
2022-10-14T21:24:02.097Z,72.43
2022-10-14T21:26:30.316Z,72.85
2022-10-14T21:28:59.763Z,76.97
2022-10-14T21:31:27.801Z,75.55
2022-10-14T21:34:02.524Z,79.72
2022-10-14T21:36:37.091Z,81.18
2022-10-14T21:39:10.123Z,73.32
2022-10-14T21:41:38.886Z,81.67
2022-10-14T21:44:08.089Z,85.60
2022-10-14T21:46:36.567Z,87.50
2022-10-14T21:49:04.508Z,88.20
2022-10-14T21:51:32.944Z,83.35
2022-10-14T21:54:00.850Z,86.53
2022-10-14T21:56:29.447Z,85.35
2022-10-14T21:58:57.854Z,90.85
2022-10-14T22:01:29.007Z,84.68
2022-10-14T22:04:05.415Z,88.38
2022-10-14T22:06:34.943Z,88.50
2022-10-14T22:09:06.046Z,91.32
2022-10-14T22:11:37.681Z,85.68
2022-10-14T22:14:08.580Z,87.13
2022-10-14T22:16:36.609Z,93.30
2022-10-14T22:19:06.323Z,81.57
2022-10-14T22:21:36.593Z,85.18
2022-10-14T22:24:05.221Z,97.55
2022-10-14T22:26:33.785Z,95.60
2022-10-14T22:29:04.705Z,90.95
2022-10-14T22:31:34.677Z,91.25
2022-10-14T22:34:04.722Z,90.68
2022-10-14T22:36:34.700Z,90.88
2022-10-14T22:39:06.593Z,95.97
2022-10-14T22:41:35.851Z,92.65
2022-10-14T22:44:05.416Z,96.90
2022-10-14T22:46:35.377Z,96.22
2022-10-14T22:49:04.251Z,91.15
2022-10-14T22:51:35.087Z,102.45
2022-10-14T22:54:03.494Z,102.50
2022-10-14T22:56:32.491Z,101.15
2022-10-14T22:59:03.387Z,102.78
2022-10-14T23:01:32.203Z,102.55
2022-10-14T23:04:00.566Z,106.80
2022-10-14T23:06:29.506Z,101.53
2022-10-14T23:09:00.450Z,97.47
2022-10-14T23:11:30.484Z,99.97
2022-10-14T23:14:01.465Z,100.03
2022-10-14T23:16:32.605Z,100.05
2022-10-14T23:19:00.537Z,104.32
2022-10-14T23:21:31.373Z,103.05
2022-10-14T23:24:01.774Z,100.47
2022-10-14T23:26:33.192Z,103.57
2022-10-14T23:29:03.272Z,110.68
2022-10-14T23:31:34.066Z,99.40
2022-10-14T23:34:04.814Z,96.75
2022-10-14T23:36:33.402Z,112.75
2022-10-14T23:39:01.079Z,102.22
2022-10-14T23:41:29.010Z,105.32
2022-10-14T23:43:56.990Z,104.20
2022-10-14T23:46:24.810Z,96.95
2022-10-14T23:49:06.949Z,105.70
2022-10-14T23:51:36.070Z,107.93
2022-10-14T23:54:04.453Z,105.47
2022-10-14T23:56:32.222Z,106.00
2022-10-14T23:59:00.043Z,119.57
